sensor_id;sensor_type;location;lat;lon;timestamp;temperature;humidity
3846;DHT22;1938;50.812;7.738;2023-10-09T00:01:50;13.70;99.90
3846;DHT22;1938;50.812;7.738;2023-10-09T00:04:17;13.70;99.90
3846;DHT22;1938;50.812;7.738;2023-10-09T00:06:43;13.70;99.90
3846;DHT22;1938;50.812;7.738;2023-10-09T00:09:10;13.70;99.90
3846;DHT22;1938;50.812;7.738;2023-10-09T00:11:51;13.60;99.90
3846;DHT22;1938;50.812;7.738;2023-10-09T00:14:30;13.60;99.90
3846;DHT22;1938;50.812;7.738;2023-10-09T00:16:58;13.60;99.90
3846;DHT22;1938;50.812;7.738;2023-10-09T00:19:44;13.60;99.90
3846;DHT22;1938;50.812;7.738;2023-10-09T00:22:09;13.60;99.90
3846;DHT22;1938;50.812;7.738;2023-10-09T00:24:55;13.50;99.90
3846;DHT22;1938;50.812;7.738;2023-10-09T00:27:42;13.50;99.90
3846;DHT22;1938;50.812;7.738;2023-10-09T00:30:09;13.50;99.90
3846;DHT22;1938;50.812;7.738;2023-10-09T00:32:36;13.30;99.90
3846;DHT22;1938;50.812;7.738;2023-10-09T00:35:03;13.30;99.90
3846;DHT22;1938;50.812;7.738;2023-10-09T00:37:48;13.20;99.90
3846;DHT22;1938;50.812;7.738;2023-10-09T00:40:16;13.20;99.90
3846;DHT22;1938;50.812;7.738;2023-10-09T00:42:47;13.20;99.90
3846;DHT22;1938;50.812;7.738;2023-10-09T00:45:14;13.10;99.90
3846;DHT22;1938;50.812;7.738;2023-10-09T00:47:50;13.10;99.90
3846;DHT22;1938;50.812;7.738;2023-10-09T00:50:16;13.00;99.90
3846;DHT22;1938;50.812;7.738;2023-10-09T00:52:48;13.00;99.90
3846;DHT22;1938;50.812;7.738;2023-10-09T00:55:31;13.00;99.90
3846;DHT22;1938;50.812;7.738;2023-10-09T00:58:14;12.90;99.90
3846;DHT22;1938;50.812;7.738;2023-10-09T01:00:43;12.90;99.90
3846;DHT22;1938;50.812;7.738;2023-10-09T01:03:09;12.90;99.90
3846;DHT22;1938;50.812;7.738;2023-10-09T01:05:47;12.80;99.90
3846;DHT22;1938;50.812;7.738;2023-10-09T01:08:40;12.80;99.90
3846;DHT22;1938;50.812;7.738;2023-10-09T01:11:16;12.80;99.90
3846;DHT22;1938;50.812;7.738;2023-10-09T01:13:47;12.80;99.90
3846;DHT22;1938;50.812;7.738;2023-10-09T01:16:14;12.80;99.90
3846;DHT22;1938;50.812;7.738;2023-10-09T01:18:48;12.70;99.90
3846;DHT22;1938;50.812;7.738;2023-10-09T01:21:19;12.70;99.90
3846;DHT22;1938;50.812;7.738;2023-10-09T01:23:49;12.70;99.90
3846;DHT22;1938;50.812;7.738;2023-10-09T01:26:31;12.60;99.90
3846;DHT22;1938;50.812;7.738;2023-10-09T01:28:59;12.60;99.90
3846;DHT22;1938;50.812;7.738;2023-10-09T01:31:26;12.60;99.90
3846;DHT22;1938;50.812;7.738;2023-10-09T01:33:53;12.50;99.90
3846;DHT22;1938;50.812;7.738;2023-10-09T01:36:25;12.50;99.90
3846;DHT22;1938;50.812;7.738;2023-10-09T01:39:00;12.50;99.90
3846;DHT22;1938;50.812;7.738;2023-10-09T01:41:32;12.40;99.90
3846;DHT22;1938;50.812;7.738;2023-10-09T01:43:59;12.30;99.90
3846;DHT22;1938;50.812;7.738;2023-10-09T01:46:29;12.30;99.90
3846;DHT22;1938;50.812;7.738;2023-10-09T01:48:58;12.30;99.90
3846;DHT22;1938;50.812;7.738;2023-10-09T01:51:33;12.30;99.90
3846;DHT22;1938;50.812;7.738;2023-10-09T01:54:03;12.20;99.90
3846;DHT22;1938;50.812;7.738;2023-10-09T01:56:28;12.20;99.90
3846;DHT22;1938;50.812;7.738;2023-10-09T01:58:54;12.20;99.90
3846;DHT22;1938;50.812;7.738;2023-10-09T02:01:23;12.20;99.90
3846;DHT22;1938;50.812;7.738;2023-10-09T02:03:49;12.20;99.90
3846;DHT22;1938;50.812;7.738;2023-10-09T02:06:17;12.20;99.90
3846;DHT22;1938;50.812;7.738;2023-10-09T02:08:54;12.20;99.90
3846;DHT22;1938;50.812;7.738;2023-10-09T02:11:21;12.20;99.90
3846;DHT22;1938;50.812;7.738;2023-10-09T02:14:01;12.10;99.90
3846;DHT22;1938;50.812;7.738;2023-10-09T02:16:27;12.20;99.90
3846;DHT22;1938;50.812;7.738;2023-10-09T02:18:58;12.20;99.90
3846;DHT22;1938;50.812;7.738;2023-10-09T02:21:24;12.20;99.90
3846;DHT22;1938;50.812;7.738;2023-10-09T02:24:05;12.20;99.90
3846;DHT22;1938;50.812;7.738;2023-10-09T02:26:34;12.20;99.90
3846;DHT22;1938;50.812;7.738;2023-10-09T02:29:20;12.10;99.90
3846;DHT22;1938;50.812;7.738;2023-10-09T02:31:49;12.10;99.90
3846;DHT22;1938;50.812;7.738;2023-10-09T02:34:20;12.20;99.90
3846;DHT22;1938;50.812;7.738;2023-10-09T02:36:50;12.10;99.90
3846;DHT22;1938;50.812;7.738;2023-10-09T02:39:24;12.10;99.90
3846;DHT22;1938;50.812;7.738;2023-10-09T02:41:55;12.20;99.90
3846;DHT22;1938;50.812;7.738;2023-10-09T02:44:27;12.20;99.90
3846;DHT22;1938;50.812;7.738;2023-10-09T02:47:00;12.20;99.90
3846;DHT22;1938;50.812;7.738;2023-10-09T02:49:30;12.20;99.90
3846;DHT22;1938;50.812;7.738;2023-10-09T02:51:56;12.20;99.90
3846;DHT22;1938;50.812;7.738;2023-10-09T02:54:22;12.30;99.90
3846;DHT22;1938;50.812;7.738;2023-10-09T02:56:48;12.30;99.90
3846;DHT22;1938;50.812;7.738;2023-10-09T02:59:21;12.30;99.90
3846;DHT22;1938;50.812;7.738;2023-10-09T03:01:50;12.30;99.90
3846;DHT22;1938;50.812;7.738;2023-10-09T03:04:18;12.30;99.90
3846;DHT22;1938;50.812;7.738;2023-10-09T03:06:45;12.40;99.90
3846;DHT22;1938;50.812;7.738;2023-10-09T03:09:20;12.40;99.90
3846;DHT22;1938;50.812;7.738;2023-10-09T03:11:59;12.40;99.90
3846;DHT22;1938;50.812;7.738;2023-10-09T03:14:32;12.40;99.90
3846;DHT22;1938;50.812;7.738;2023-10-09T03:17:00;12.40;99.90
3846;DHT22;1938;50.812;7.738;2023-10-09T03:19:28;12.50;99.90
3846;DHT22;1938;50.812;7.738;2023-10-09T03:21:55;12.50;99.90
3846;DHT22;1938;50.812;7.738;2023-10-09T03:24:26;12.50;99.90
3846;DHT22;1938;50.812;7.738;2023-10-09T03:26:58;12.50;99.90
3846;DHT22;1938;50.812;7.738;2023-10-09T03:29:24;12.50;99.90
3846;DHT22;1938;50.812;7.738;2023-10-09T03:31:50;12.50;99.90
3846;DHT22;1938;50.812;7.738;2023-10-09T03:34:17;12.50;99.90
3846;DHT22;1938;50.812;7.738;2023-10-09T03:36:44;12.50;99.90
3846;DHT22;1938;50.812;7.738;2023-10-09T03:39:09;12.50;99.90
3846;DHT22;1938;50.812;7.738;2023-10-09T03:41:58;12.50;99.90
3846;DHT22;1938;50.812;7.738;2023-10-09T03:44:26;12.50;99.90
3846;DHT22;1938;50.812;7.738;2023-10-09T03:46:54;12.50;99.90
3846;DHT22;1938;50.812;7.738;2023-10-09T03:49:19;12.50;99.90
3846;DHT22;1938;50.812;7.738;2023-10-09T03:51:49;12.50;99.90
3846;DHT22;1938;50.812;7.738;2023-10-09T03:54:15;12.40;99.90
3846;DHT22;1938;50.812;7.738;2023-10-09T03:56:43;12.40;99.90
3846;DHT22;1938;50.812;7.738;2023-10-09T03:59:08;12.40;99.90
3846;DHT22;1938;50.812;7.738;2023-10-09T04:01:36;12.40;99.90
3846;DHT22;1938;50.812;7.738;2023-10-09T04:04:05;12.50;99.90
3846;DHT22;1938;50.812;7.738;2023-10-09T04:06:36;12.50;99.90
3846;DHT22;1938;50.812;7.738;2023-10-09T04:09:03;12.50;99.90
3846;DHT22;1938;50.812;7.738;2023-10-09T04:11:49;12.50;99.90
3846;DHT22;1938;50.812;7.738;2023-10-09T04:14:23;12.60;99.90
3846;DHT22;1938;50.812;7.738;2023-10-09T04:16:58;12.60;99.90
3846;DHT22;1938;50.812;7.738;2023-10-09T04:19:50;12.60;99.90
3846;DHT22;1938;50.812;7.738;2023-10-09T04:22:34;12.60;99.90
3846;DHT22;1938;50.812;7.738;2023-10-09T04:25:05;12.60;99.90
3846;DHT22;1938;50.812;7.738;2023-10-09T04:27:41;12.60;99.90
3846;DHT22;1938;50.812;7.738;2023-10-09T04:30:07;12.70;99.90
3846;DHT22;1938;50.812;7.738;2023-10-09T04:32:33;12.70;99.90
3846;DHT22;1938;50.812;7.738;2023-10-09T04:35:00;12.80;99.90
3846;DHT22;1938;50.812;7.738;2023-10-09T04:37:44;12.80;99.90
3846;DHT22;1938;50.812;7.738;2023-10-09T04:40:18;12.80;99.90
3846;DHT22;1938;50.812;7.738;2023-10-09T04:43:03;12.80;99.90
3846;DHT22;1938;50.812;7.738;2023-10-09T04:45:41;12.70;99.90
3846;DHT22;1938;50.812;7.738;2023-10-09T04:48:26;12.60;99.90
3846;DHT22;1938;50.812;7.738;2023-10-09T04:50:59;12.60;99.90
3846;DHT22;1938;50.812;7.738;2023-10-09T04:53:43;12.60;99.90
3846;DHT22;1938;50.812;7.738;2023-10-09T04:56:41;12.60;99.90
3846;DHT22;1938;50.812;7.738;2023-10-09T04:59:19;12.60;99.90
3846;DHT22;1938;50.812;7.738;2023-10-09T05:01:45;12.70;99.90
3846;DHT22;1938;50.812;7.738;2023-10-09T05:04:23;12.60;99.90
3846;DHT22;1938;50.812;7.738;2023-10-09T05:07:00;12.70;99.90
3846;DHT22;1938;50.812;7.738;2023-10-09T05:09:46;12.70;99.90
3846;DHT22;1938;50.812;7.738;2023-10-09T05:12:31;12.70;99.90
3846;DHT22;1938;50.812;7.738;2023-10-09T05:14:56;12.80;99.90
3846;DHT22;1938;50.812;7.738;2023-10-09T05:17:46;12.70;99.90
3846;DHT22;1938;50.812;7.738;2023-10-09T05:20:24;12.90;99.90
3846;DHT22;1938;50.812;7.738;2023-10-09T05:22:52;12.80;99.90
3846;DHT22;1938;50.812;7.738;2023-10-09T05:25:28;12.90;99.90
3846;DHT22;1938;50.812;7.738;2023-10-09T05:28:25;13.00;99.90
3846;DHT22;1938;50.812;7.738;2023-10-09T05:31:00;13.00;99.90
3846;DHT22;1938;50.812;7.738;2023-10-09T05:33:37;13.00;99.90
3846;DHT22;1938;50.812;7.738;2023-10-09T05:36:05;13.10;99.90
3846;DHT22;1938;50.812;7.738;2023-10-09T05:38:56;13.20;99.90
3846;DHT22;1938;50.812;7.738;2023-10-09T05:41:42;13.10;99.90
3846;DHT22;1938;50.812;7.738;2023-10-09T05:44:13;13.10;99.90
3846;DHT22;1938;50.812;7.738;2023-10-09T05:47:07;13.10;99.90
3846;DHT22;1938;50.812;7.738;2023-10-09T05:49:56;13.10;99.90
3846;DHT22;1938;50.812;7.738;2023-10-09T05:52:31;13.20;99.90
3846;DHT22;1938;50.812;7.738;2023-10-09T05:55:03;13.20;99.90
3846;DHT22;1938;50.812;7.738;2023-10-09T05:57:47;13.20;99.90
3846;DHT22;1938;50.812;7.738;2023-10-09T06:00:31;13.20;99.90
3846;DHT22;1938;50.812;7.738;2023-10-09T06:03:15;13.20;99.90
3846;DHT22;1938;50.812;7.738;2023-10-09T06:05:47;13.20;99.90
3846;DHT22;1938;50.812;7.738;2023-10-09T06:08:16;13.20;99.90
3846;DHT22;1938;50.812;7.738;2023-10-09T06:10:50;13.20;99.90
3846;DHT22;1938;50.812;7.738;2023-10-09T06:13:31;13.20;99.90
3846;DHT22;1938;50.812;7.738;2023-10-09T06:16:06;13.30;99.90
3846;DHT22;1938;50.812;7.738;2023-10-09T06:18:45;13.30;99.90
3846;DHT22;1938;50.812;7.738;2023-10-09T06:21:10;13.40;99.90
3846;DHT22;1938;50.812;7.738;2023-10-09T06:23:56;13.50;99.90
3846;DHT22;1938;50.812;7.738;2023-10-09T06:26:49;13.50;99.90
3846;DHT22;1938;50.812;7.738;2023-10-09T06:32:03;13.80;99.90
3846;DHT22;1938;50.812;7.738;2023-10-09T06:34:58;13.90;99.90
3846;DHT22;1938;50.812;7.738;2023-10-09T06:37:49;14.10;99.90
3846;DHT22;1938;50.812;7.738;2023-10-09T06:40:31;14.30;99.90
3846;DHT22;1938;50.812;7.738;2023-10-09T06:43:06;14.50;99.90
3846;DHT22;1938;50.812;7.738;2023-10-09T06:46:01;14.70;99.90
3846;DHT22;1938;50.812;7.738;2023-10-09T06:48:45;14.90;99.90
3846;DHT22;1938;50.812;7.738;2023-10-09T06:51:14;15.00;99.90
3846;DHT22;1938;50.812;7.738;2023-10-09T06:53:52;15.10;99.90
3846;DHT22;1938;50.812;7.738;2023-10-09T06:56:21;15.20;99.90
3846;DHT22;1938;50.812;7.738;2023-10-09T06:59:03;15.30;99.90
3846;DHT22;1938;50.812;7.738;2023-10-09T07:01:46;15.30;70.20
3846;DHT22;1938;50.812;7.738;2023-10-09T07:04:16;15.20;1.00
3846;DHT22;1938;50.812;7.738;2023-10-09T07:06:46;15.20;1.00
3846;DHT22;1938;50.812;7.738;2023-10-09T07:09:12;15.20;1.00
3846;DHT22;1938;50.812;7.738;2023-10-09T07:11:43;15.10;1.00
3846;DHT22;1938;50.812;7.738;2023-10-09T07:14:10;15.10;1.00
3846;DHT22;1938;50.812;7.738;2023-10-09T07:16:58;15.20;1.00
3846;DHT22;1938;50.812;7.738;2023-10-09T07:19:27;15.30;1.00
3846;DHT22;1938;50.812;7.738;2023-10-09T07:22:08;15.40;1.00
3846;DHT22;1938;50.812;7.738;2023-10-09T07:24:56;15.40;1.00
3846;DHT22;1938;50.812;7.738;2023-10-09T07:27:22;15.40;1.00
3846;DHT22;1938;50.812;7.738;2023-10-09T07:30:07;15.50;1.00
3846;DHT22;1938;50.812;7.738;2023-10-09T07:32:56;15.60;1.00
3846;DHT22;1938;50.812;7.738;2023-10-09T07:35:31;15.70;1.00
3846;DHT22;1938;50.812;7.738;2023-10-09T07:38:11;15.90;1.00
3846;DHT22;1938;50.812;7.738;2023-10-09T07:40:40;16.00;1.00
3846;DHT22;1938;50.812;7.738;2023-10-09T07:43:28;16.10;99.90
3846;DHT22;1938;50.812;7.738;2023-10-09T07:46:10;16.10;27.70
3846;DHT22;1938;50.812;7.738;2023-10-09T07:48:59;16.10;1.00
3846;DHT22;1938;50.812;7.738;2023-10-09T07:51:26;16.10;1.00
3846;DHT22;1938;50.812;7.738;2023-10-09T07:53:58;16.00;76.30
3846;DHT22;1938;50.812;7.738;2023-10-09T07:56:34;16.00;99.90
3846;DHT22;1938;50.812;7.738;2023-10-09T07:59:20;15.90;18.40
3846;DHT22;1938;50.812;7.738;2023-10-09T08:01:49;15.90;99.90
3846;DHT22;1938;50.812;7.738;2023-10-09T08:04:21;16.00;1.00
3846;DHT22;1938;50.812;7.738;2023-10-09T08:07:14;16.20;99.90
3846;DHT22;1938;50.812;7.738;2023-10-09T08:10:07;16.50;99.90
3846;DHT22;1938;50.812;7.738;2023-10-09T08:12:39;16.90;99.90
3846;DHT22;1938;50.812;7.738;2023-10-09T08:15:23;17.60;43.50
3846;DHT22;1938;50.812;7.738;2023-10-09T08:17:57;18.30;99.90
3846;DHT22;1938;50.812;7.738;2023-10-09T08:20:44;19.00;99.90
3846;DHT22;1938;50.812;7.738;2023-10-09T08:23:27;19.90;92.80
3846;DHT22;1938;50.812;7.738;2023-10-09T08:26:13;20.60;1.00
3846;DHT22;1938;50.812;7.738;2023-10-09T08:28:39;21.00;99.90
3846;DHT22;1938;50.812;7.738;2023-10-09T08:31:12;21.40;99.90
3846;DHT22;1938;50.812;7.738;2023-10-09T08:33:56;21.60;99.90
3846;DHT22;1938;50.812;7.738;2023-10-09T08:36:25;22.00;29.10
3846;DHT22;1938;50.812;7.738;2023-10-09T08:38:57;22.30;35.50
3846;DHT22;1938;50.812;7.738;2023-10-09T08:41:33;22.40;1.00
3846;DHT22;1938;50.812;7.738;2023-10-09T08:43:59;22.40;1.00
3846;DHT22;1938;50.812;7.738;2023-10-09T08:46:27;22.40;1.00
3846;DHT22;1938;50.812;7.738;2023-10-09T08:48:55;22.10;1.00
3846;DHT22;1938;50.812;7.738;2023-10-09T08:51:21;21.90;1.00
3846;DHT22;1938;50.812;7.738;2023-10-09T08:53:47;21.60;1.00
3846;DHT22;1938;50.812;7.738;2023-10-09T08:56:14;21.30;1.00
3846;DHT22;1938;50.812;7.738;2023-10-09T08:58:52;20.90;1.00
3846;DHT22;1938;50.812;7.738;2023-10-09T09:01:20;20.50;1.00
3846;DHT22;1938;50.812;7.738;2023-10-09T09:03:47;20.30;1.00
3846;DHT22;1938;50.812;7.738;2023-10-09T09:06:13;20.00;1.00
3846;DHT22;1938;50.812;7.738;2023-10-09T09:08:40;19.80;1.00
3846;DHT22;1938;50.812;7.738;2023-10-09T09:11:10;19.70;11.10
3846;DHT22;1938;50.812;7.738;2023-10-09T09:13:47;19.50;16.60
3846;DHT22;1938;50.812;7.738;2023-10-09T09:16:18;19.40;51.80
3846;DHT22;1938;50.812;7.738;2023-10-09T09:18:52;19.30;99.30
3846;DHT22;1938;50.812;7.738;2023-10-09T09:21:21;19.30;99.90
3846;DHT22;1938;50.812;7.738;2023-10-09T09:24:00;19.40;99.90
3846;DHT22;1938;50.812;7.738;2023-10-09T09:26:42;19.60;99.90
3846;DHT22;1938;50.812;7.738;2023-10-09T09:29:15;19.80;99.90
3846;DHT22;1938;50.812;7.738;2023-10-09T09:31:54;19.80;99.90
3846;DHT22;1938;50.812;7.738;2023-10-09T09:34:22;19.90;99.90
3846;DHT22;1938;50.812;7.738;2023-10-09T09:36:57;20.00;99.90
3846;DHT22;1938;50.812;7.738;2023-10-09T09:39:25;20.00;99.90
3846;DHT22;1938;50.812;7.738;2023-10-09T09:42:00;20.10;99.90
3846;DHT22;1938;50.812;7.738;2023-10-09T09:44:39;20.10;99.90
3846;DHT22;1938;50.812;7.738;2023-10-09T09:47:14;20.30;99.90
3846;DHT22;1938;50.812;7.738;2023-10-09T09:49:50;20.40;99.90
3846;DHT22;1938;50.812;7.738;2023-10-09T09:52:18;20.60;41.70
3846;DHT22;1938;50.812;7.738;2023-10-09T09:54:44;20.70;62.30
3846;DHT22;1938;50.812;7.738;2023-10-09T09:57:12;20.80;2.50
3846;DHT22;1938;50.812;7.738;2023-10-09T09:59:40;20.90;1.00
3846;DHT22;1938;50.812;7.738;2023-10-09T10:02:09;21.00;1.00
3846;DHT22;1938;50.812;7.738;2023-10-09T10:04:39;21.00;1.00
3846;DHT22;1938;50.812;7.738;2023-10-09T10:07:06;21.00;1.00
3846;DHT22;1938;50.812;7.738;2023-10-09T10:09:38;21.10;1.00
3846;DHT22;1938;50.812;7.738;2023-10-09T10:12:09;21.10;1.00
3846;DHT22;1938;50.812;7.738;2023-10-09T10:20:30;21.30;1.00
3846;DHT22;1938;50.812;7.738;2023-10-09T10:23:16;21.40;1.00
3846;DHT22;1938;50.812;7.738;2023-10-09T10:25:43;21.50;1.00
3846;DHT22;1938;50.812;7.738;2023-10-09T10:28:22;21.40;1.00
3846;DHT22;1938;50.812;7.738;2023-10-09T10:31:03;21.60;1.00
3846;DHT22;1938;50.812;7.738;2023-10-09T10:36:21;21.70;1.00
3846;DHT22;1938;50.812;7.738;2023-10-09T10:41:36;22.10;1.00
3846;DHT22;1938;50.812;7.738;2023-10-09T10:44:23;22.20;1.00
3846;DHT22;1938;50.812;7.738;2023-10-09T10:47:11;22.40;1.00
3846;DHT22;1938;50.812;7.738;2023-10-09T10:49:58;22.50;1.00
3846;DHT22;1938;50.812;7.738;2023-10-09T10:52:25;22.50;99.90
3846;DHT22;1938;50.812;7.738;2023-10-09T10:55:13;22.50;99.90
3846;DHT22;1938;50.812;7.738;2023-10-09T10:57:59;22.60;99.90
3846;DHT22;1938;50.812;7.738;2023-10-09T11:00:39;22.60;99.90
3846;DHT22;1938;50.812;7.738;2023-10-09T11:03:23;22.70;99.90
3846;DHT22;1938;50.812;7.738;2023-10-09T11:05:57;22.70;99.90
3846;DHT22;1938;50.812;7.738;2023-10-09T11:08:44;22.70;99.90
3846;DHT22;1938;50.812;7.738;2023-10-09T11:11:19;22.70;99.90
3846;DHT22;1938;50.812;7.738;2023-10-09T11:13:45;22.70;99.90
3846;DHT22;1938;50.812;7.738;2023-10-09T11:16:24;22.70;99.90
3846;DHT22;1938;50.812;7.738;2023-10-09T11:19:10;22.70;99.90
3846;DHT22;1938;50.812;7.738;2023-10-09T11:21:49;22.70;99.90
3846;DHT22;1938;50.812;7.738;2023-10-09T11:24:24;22.70;99.90
3846;DHT22;1938;50.812;7.738;2023-10-09T11:26:50;22.60;99.90
3846;DHT22;1938;50.812;7.738;2023-10-09T11:29:25;22.60;99.90
3846;DHT22;1938;50.812;7.738;2023-10-09T11:32:09;22.30;99.90
3846;DHT22;1938;50.812;7.738;2023-10-09T11:34:43;22.30;99.90
3846;DHT22;1938;50.812;7.738;2023-10-09T11:37:21;22.20;99.90
3846;DHT22;1938;50.812;7.738;2023-10-09T11:39:59;22.20;99.90
3846;DHT22;1938;50.812;7.738;2023-10-09T11:42:30;22.20;99.90
3846;DHT22;1938;50.812;7.738;2023-10-09T11:45:07;22.20;99.90
3846;DHT22;1938;50.812;7.738;2023-10-09T11:48:15;22.30;99.90
3846;DHT22;1938;50.812;7.738;2023-10-09T11:50:47;22.30;99.90
3846;DHT22;1938;50.812;7.738;2023-10-09T11:53:43;22.40;99.90
3846;DHT22;1938;50.812;7.738;2023-10-09T11:56:11;22.30;99.90
3846;DHT22;1938;50.812;7.738;2023-10-09T11:58:42;22.30;99.90
3846;DHT22;1938;50.812;7.738;2023-10-09T12:01:13;22.30;99.90
3846;DHT22;1938;50.812;7.738;2023-10-09T12:03:45;22.30;99.90
3846;DHT22;1938;50.812;7.738;2023-10-09T12:06:15;22.40;99.90
3846;DHT22;1938;50.812;7.738;2023-10-09T12:08:46;22.40;99.90
3846;DHT22;1938;50.812;7.738;2023-10-09T12:11:17;22.40;99.90
3846;DHT22;1938;50.812;7.738;2023-10-09T12:13:54;22.50;99.90
3846;DHT22;1938;50.812;7.738;2023-10-09T12:16:26;22.50;99.90
3846;DHT22;1938;50.812;7.738;2023-10-09T12:18:54;22.50;99.90
3846;DHT22;1938;50.812;7.738;2023-10-09T12:21:20;22.60;99.90
3846;DHT22;1938;50.812;7.738;2023-10-09T12:23:46;22.60;99.90
3846;DHT22;1938;50.812;7.738;2023-10-09T12:26:13;22.50;99.90
3846;DHT22;1938;50.812;7.738;2023-10-09T12:28:42;22.30;99.90
3846;DHT22;1938;50.812;7.738;2023-10-09T12:31:14;22.30;99.90
3846;DHT22;1938;50.812;7.738;2023-10-09T12:33:42;22.30;99.90
3846;DHT22;1938;50.812;7.738;2023-10-09T12:36:16;22.10;99.90
3846;DHT22;1938;50.812;7.738;2023-10-09T12:38:49;22.10;99.90
3846;DHT22;1938;50.812;7.738;2023-10-09T12:41:24;22.00;99.90
3846;DHT22;1938;50.812;7.738;2023-10-09T12:43:59;22.10;99.90
3846;DHT22;1938;50.812;7.738;2023-10-09T12:46:24;22.00;99.90
3846;DHT22;1938;50.812;7.738;2023-10-09T12:48:51;21.90;99.90
3846;DHT22;1938;50.812;7.738;2023-10-09T12:51:20;21.80;99.90
3846;DHT22;1938;50.812;7.738;2023-10-09T12:53:47;21.80;99.90
3846;DHT22;1938;50.812;7.738;2023-10-09T12:56:14;21.80;99.90
3846;DHT22;1938;50.812;7.738;2023-10-09T12:58:41;21.80;99.90
3846;DHT22;1938;50.812;7.738;2023-10-09T13:01:18;21.80;99.90
3846;DHT22;1938;50.812;7.738;2023-10-09T13:03:44;21.90;99.90
3846;DHT22;1938;50.812;7.738;2023-10-09T13:06:14;21.80;99.90
3846;DHT22;1938;50.812;7.738;2023-10-09T13:08:41;21.80;99.90
3846;DHT22;1938;50.812;7.738;2023-10-09T13:11:09;21.80;99.90
3846;DHT22;1938;50.812;7.738;2023-10-09T13:13:42;21.80;99.90
3846;DHT22;1938;50.812;7.738;2023-10-09T13:16:11;21.80;99.90
3846;DHT22;1938;50.812;7.738;2023-10-09T13:18:42;21.70;99.90
3846;DHT22;1938;50.812;7.738;2023-10-09T13:21:17;21.50;99.90
3846;DHT22;1938;50.812;7.738;2023-10-09T13:23:43;21.40;99.90
3846;DHT22;1938;50.812;7.738;2023-10-09T13:26:13;21.30;99.90
3846;DHT22;1938;50.812;7.738;2023-10-09T13:28:48;21.30;99.90
3846;DHT22;1938;50.812;7.738;2023-10-09T13:31:15;21.10;99.90
3846;DHT22;1938;50.812;7.738;2023-10-09T13:33:42;21.20;99.90
3846;DHT22;1938;50.812;7.738;2023-10-09T13:36:12;21.10;99.90
3846;DHT22;1938;50.812;7.738;2023-10-09T13:38:59;21.20;99.90
3846;DHT22;1938;50.812;7.738;2023-10-09T13:41:45;21.20;99.90
3846;DHT22;1938;50.812;7.738;2023-10-09T13:44:10;21.10;99.90
3846;DHT22;1938;50.812;7.738;2023-10-09T13:46:36;21.20;99.90
3846;DHT22;1938;50.812;7.738;2023-10-09T13:49:11;21.20;99.90
3846;DHT22;1938;50.812;7.738;2023-10-09T13:51:40;21.20;99.90
3846;DHT22;1938;50.812;7.738;2023-10-09T13:54:14;21.10;99.90
3846;DHT22;1938;50.812;7.738;2023-10-09T13:57:06;21.10;99.90
3846;DHT22;1938;50.812;7.738;2023-10-09T13:59:36;21.10;99.90
3846;DHT22;1938;50.812;7.738;2023-10-09T14:02:07;21.00;99.90
3846;DHT22;1938;50.812;7.738;2023-10-09T14:04:43;21.00;99.90
3846;DHT22;1938;50.812;7.738;2023-10-09T14:07:09;21.00;99.90
3846;DHT22;1938;50.812;7.738;2023-10-09T14:09:35;21.00;99.90
3846;DHT22;1938;50.812;7.738;2023-10-09T14:12:06;21.10;99.90
3846;DHT22;1938;50.812;7.738;2023-10-09T14:14:40;21.00;99.90
3846;DHT22;1938;50.812;7.738;2023-10-09T14:17:13;21.00;99.90
3846;DHT22;1938;50.812;7.738;2023-10-09T14:19:43;20.80;99.90
3846;DHT22;1938;50.812;7.738;2023-10-09T14:22:13;20.80;99.90
3846;DHT22;1938;50.812;7.738;2023-10-09T14:24:42;20.70;99.90
3846;DHT22;1938;50.812;7.738;2023-10-09T14:27:11;20.70;99.90
3846;DHT22;1938;50.812;7.738;2023-10-09T14:29:45;20.60;99.90
3846;DHT22;1938;50.812;7.738;2023-10-09T14:32:11;20.60;99.90
3846;DHT22;1938;50.812;7.738;2023-10-09T14:34:41;20.50;99.90
3846;DHT22;1938;50.812;7.738;2023-10-09T14:37:16;20.50;99.90
3846;DHT22;1938;50.812;7.738;2023-10-09T14:39:43;20.40;99.90
3846;DHT22;1938;50.812;7.738;2023-10-09T14:42:16;20.40;99.90
3846;DHT22;1938;50.812;7.738;2023-10-09T14:44:42;20.30;99.90
3846;DHT22;1938;50.812;7.738;2023-10-09T14:47:10;20.30;99.90
3846;DHT22;1938;50.812;7.738;2023-10-09T14:49:36;20.30;99.90
3846;DHT22;1938;50.812;7.738;2023-10-09T14:52:12;20.30;99.90
3846;DHT22;1938;50.812;7.738;2023-10-09T14:54:42;20.30;99.90
3846;DHT22;1938;50.812;7.738;2023-10-09T14:57:08;20.30;99.90
3846;DHT22;1938;50.812;7.738;2023-10-09T14:59:37;20.20;99.90
3846;DHT22;1938;50.812;7.738;2023-10-09T15:02:03;20.20;99.90
3846;DHT22;1938;50.812;7.738;2023-10-09T15:04:30;20.20;99.90
3846;DHT22;1938;50.812;7.738;2023-10-09T15:06:56;20.20;99.90
3846;DHT22;1938;50.812;7.738;2023-10-09T15:09:22;20.20;99.90
3846;DHT22;1938;50.812;7.738;2023-10-09T15:11:51;20.10;99.90
3846;DHT22;1938;50.812;7.738;2023-10-09T15:14:17;20.00;99.90
3846;DHT22;1938;50.812;7.738;2023-10-09T15:16:47;19.90;99.90
3846;DHT22;1938;50.812;7.738;2023-10-09T15:19:14;19.80;99.90
3846;DHT22;1938;50.812;7.738;2023-10-09T15:21:40;19.80;99.90
3846;DHT22;1938;50.812;7.738;2023-10-09T15:24:13;19.80;99.90
3846;DHT22;1938;50.812;7.738;2023-10-09T15:26:48;19.70;99.90
3846;DHT22;1938;50.812;7.738;2023-10-09T15:29:20;19.70;1.00
3846;DHT22;1938;50.812;7.738;2023-10-09T15:31:54;19.60;1.00
3846;DHT22;1938;50.812;7.738;2023-10-09T15:34:20;19.60;1.00
3846;DHT22;1938;50.812;7.738;2023-10-09T15:36:46;19.60;1.00
3846;DHT22;1938;50.812;7.738;2023-10-09T15:39:15;19.60;1.00
3846;DHT22;1938;50.812;7.738;2023-10-09T15:41:47;19.60;1.00
3846;DHT22;1938;50.812;7.738;2023-10-09T15:44:14;19.50;1.00
3846;DHT22;1938;50.812;7.738;2023-10-09T15:46:40;19.50;1.00
3846;DHT22;1938;50.812;7.738;2023-10-09T15:49:06;19.40;1.00
3846;DHT22;1938;50.812;7.738;2023-10-09T15:51:34;19.40;1.00
3846;DHT22;1938;50.812;7.738;2023-10-09T15:54:01;19.40;1.00
3846;DHT22;1938;50.812;7.738;2023-10-09T15:56:27;19.40;1.00
3846;DHT22;1938;50.812;7.738;2023-10-09T15:58:53;19.30;1.00
3846;DHT22;1938;50.812;7.738;2023-10-09T16:01:19;19.30;1.00
3846;DHT22;1938;50.812;7.738;2023-10-09T16:03:46;19.20;1.00
3846;DHT22;1938;50.812;7.738;2023-10-09T16:06:19;19.10;1.00
3846;DHT22;1938;50.812;7.738;2023-10-09T16:08:46;19.10;1.00
3846;DHT22;1938;50.812;7.738;2023-10-09T16:11:22;19.10;1.00
3846;DHT22;1938;50.812;7.738;2023-10-09T16:13:49;19.00;1.00
3846;DHT22;1938;50.812;7.738;2023-10-09T16:16:25;19.00;1.00
3846;DHT22;1938;50.812;7.738;2023-10-09T16:18:50;19.00;21.10
3846;DHT22;1938;50.812;7.738;2023-10-09T16:21:16;18.90;24.60
3846;DHT22;1938;50.812;7.738;2023-10-09T16:23:42;18.90;34.50
3846;DHT22;1938;50.812;7.738;2023-10-09T16:26:07;18.80;42.00
3846;DHT22;1938;50.812;7.738;2023-10-09T16:28:34;18.80;72.60
3846;DHT22;1938;50.812;7.738;2023-10-09T16:30:59;18.70;99.90
3846;DHT22;1938;50.812;7.738;2023-10-09T16:33:25;18.60;99.90
3846;DHT22;1938;50.812;7.738;2023-10-09T16:35:52;18.50;99.90
3846;DHT22;1938;50.812;7.738;2023-10-09T16:38:20;18.50;99.90
3846;DHT22;1938;50.812;7.738;2023-10-09T16:40:52;18.40;99.90
3846;DHT22;1938;50.812;7.738;2023-10-09T16:43:19;18.30;99.90
3846;DHT22;1938;50.812;7.738;2023-10-09T16:45:44;18.20;99.90
3846;DHT22;1938;50.812;7.738;2023-10-09T16:48:10;18.20;99.90
3846;DHT22;1938;50.812;7.738;2023-10-09T16:50:36;18.10;99.90
3846;DHT22;1938;50.812;7.738;2023-10-09T16:53:02;18.10;99.90
3846;DHT22;1938;50.812;7.738;2023-10-09T16:55:29;18.00;99.90
3846;DHT22;1938;50.812;7.738;2023-10-09T16:57:55;17.90;99.90